sensor_id;sensor_type;location;lat;lon;timestamp;P1;durP1;ratioP1;P2;durP2;ratioP2
55134;SDS011;41031;44.750;11.308;2023-08-17T00:02:00;9.80;;;8.80;;
55134;SDS011;41031;44.750;11.308;2023-08-17T00:04:27;11.47;;;9.57;;
55134;SDS011;41031;44.750;11.308;2023-08-17T00:06:54;18.00;;;10.33;;
55134;SDS011;41031;44.750;11.308;2023-08-17T00:09:21;10.47;;;9.17;;
55134;SDS011;41031;44.750;11.308;2023-08-17T00:11:49;12.27;;;9.83;;
55134;SDS011;41031;44.750;11.308;2023-08-17T00:14:16;10.30;;;8.93;;
55134;SDS011;41031;44.750;11.308;2023-08-17T00:16:43;10.90;;;9.77;;
55134;SDS011;41031;44.750;11.308;2023-08-17T00:19:10;10.00;;;9.00;;
55134;SDS011;41031;44.750;11.308;2023-08-17T00:21:37;10.10;;;9.03;;
55134;SDS011;41031;44.750;11.308;2023-08-17T00:24:04;10.80;;;9.03;;
55134;SDS011;41031;44.750;11.308;2023-08-17T00:26:31;9.77;;;8.97;;
55134;SDS011;41031;44.750;11.308;2023-08-17T00:28:58;10.70;;;9.60;;
55134;SDS011;41031;44.750;11.308;2023-08-17T00:31:25;10.60;;;9.70;;
55134;SDS011;41031;44.750;11.308;2023-08-17T00:33:52;15.87;;;10.00;;
55134;SDS011;41031;44.750;11.308;2023-08-17T00:36:19;11.23;;;9.97;;
55134;SDS011;41031;44.750;11.308;2023-08-17T00:38:46;13.17;;;9.90;;
55134;SDS011;41031;44.750;11.308;2023-08-17T00:41:13;11.97;;;10.30;;
55134;SDS011;41031;44.750;11.308;2023-08-17T00:43:40;11.90;;;10.80;;
55134;SDS011;41031;44.750;11.308;2023-08-17T00:46:07;12.73;;;10.83;;
55134;SDS011;41031;44.750;11.308;2023-08-17T00:48:34;11.70;;;10.47;;
55134;SDS011;41031;44.750;11.308;2023-08-17T00:51:01;11.93;;;10.47;;
55134;SDS011;41031;44.750;11.308;2023-08-17T00:53:29;11.57;;;10.43;;
55134;SDS011;41031;44.750;11.308;2023-08-17T00:55:59;11.87;;;10.77;;
55134;SDS011;41031;44.750;11.308;2023-08-17T00:58:27;12.23;;;11.00;;
55134;SDS011;41031;44.750;11.308;2023-08-17T01:00:55;12.10;;;11.00;;
55134;SDS011;41031;44.750;11.308;2023-08-17T01:03:22;15.50;;;10.37;;
55134;SDS011;41031;44.750;11.308;2023-08-17T01:05:50;11.50;;;10.33;;
55134;SDS011;41031;44.750;11.308;2023-08-17T01:08:17;15.10;;;10.73;;
55134;SDS011;41031;44.750;11.308;2023-08-17T01:10:51;12.20;;;11.00;;
55134;SDS011;41031;44.750;11.308;2023-08-17T01:16:39;10.73;;;9.63;;
55134;SDS011;41031;44.750;11.308;2023-08-17T01:19:10;13.77;;;10.23;;
55134;SDS011;41031;44.750;11.308;2023-08-17T01:21:49;9.90;;;8.90;;
55134;SDS011;41031;44.750;11.308;2023-08-17T01:24:17;12.03;;;10.83;;
55134;SDS011;41031;44.750;11.308;2023-08-17T01:26:44;13.27;;;11.63;;
55134;SDS011;41031;44.750;11.308;2023-08-17T01:29:12;12.20;;;10.90;;
55134;SDS011;41031;44.750;11.308;2023-08-17T01:31:45;11.77;;;10.13;;
55134;SDS011;41031;44.750;11.308;2023-08-17T01:34:21;12.33;;;11.03;;
55134;SDS011;41031;44.750;11.308;2023-08-17T01:36:51;10.27;;;9.13;;
55134;SDS011;41031;44.750;11.308;2023-08-17T01:39:26;12.23;;;9.83;;
55134;SDS011;41031;44.750;11.308;2023-08-17T01:41:58;11.17;;;9.97;;
55134;SDS011;41031;44.750;11.308;2023-08-17T01:44:26;11.17;;;10.07;;
55134;SDS011;41031;44.750;11.308;2023-08-17T01:46:54;12.30;;;9.63;;
55134;SDS011;41031;44.750;11.308;2023-08-17T01:49:21;11.47;;;10.43;;
55134;SDS011;41031;44.750;11.308;2023-08-17T01:51:49;17.93;;;12.47;;
55134;SDS011;41031;44.750;11.308;2023-08-17T01:54:16;13.77;;;12.47;;
55134;SDS011;41031;44.750;11.308;2023-08-17T01:56:43;13.40;;;12.07;;
55134;SDS011;41031;44.750;11.308;2023-08-17T01:59:11;12.23;;;11.17;;
55134;SDS011;41031;44.750;11.308;2023-08-17T02:01:39;14.13;;;11.53;;
55134;SDS011;41031;44.750;11.308;2023-08-17T02:04:06;12.67;;;10.63;;
55134;SDS011;41031;44.750;11.308;2023-08-17T02:06:33;11.83;;;10.57;;
55134;SDS011;41031;44.750;11.308;2023-08-17T02:09:00;11.77;;;10.73;;
55134;SDS011;41031;44.750;11.308;2023-08-17T02:11:27;11.70;;;10.60;;
55134;SDS011;41031;44.750;11.308;2023-08-17T02:13:54;12.40;;;11.30;;
55134;SDS011;41031;44.750;11.308;2023-08-17T02:16:23;10.80;;;9.73;;
55134;SDS011;41031;44.750;11.308;2023-08-17T02:18:50;11.30;;;10.20;;
55134;SDS011;41031;44.750;11.308;2023-08-17T02:21:17;11.83;;;10.70;;
55134;SDS011;41031;44.750;11.308;2023-08-17T02:23:44;14.03;;;12.63;;
55134;SDS011;41031;44.750;11.308;2023-08-17T02:26:11;14.30;;;12.90;;
55134;SDS011;41031;44.750;11.308;2023-08-17T02:28:38;15.80;;;14.40;;
55134;SDS011;41031;44.750;11.308;2023-08-17T02:31:05;16.63;;;13.90;;
55134;SDS011;41031;44.750;11.308;2023-08-17T02:33:33;14.07;;;12.83;;
55134;SDS011;41031;44.750;11.308;2023-08-17T02:36:00;14.70;;;11.23;;
55134;SDS011;41031;44.750;11.308;2023-08-17T02:38:28;14.70;;;11.73;;
55134;SDS011;41031;44.750;11.308;2023-08-17T02:40:55;12.60;;;11.40;;
55134;SDS011;41031;44.750;11.308;2023-08-17T02:43:22;12.23;;;11.03;;
55134;SDS011;41031;44.750;11.308;2023-08-17T02:45:50;14.00;;;12.67;;
55134;SDS011;41031;44.750;11.308;2023-08-17T02:48:17;13.90;;;12.50;;
55134;SDS011;41031;44.750;11.308;2023-08-17T02:50:44;14.17;;;12.77;;
55134;SDS011;41031;44.750;11.308;2023-08-17T02:53:11;15.47;;;12.53;;
55134;SDS011;41031;44.750;11.308;2023-08-17T02:55:38;12.97;;;11.67;;
55134;SDS011;41031;44.750;11.308;2023-08-17T02:58:07;12.00;;;10.93;;
55134;SDS011;41031;44.750;11.308;2023-08-17T03:00:34;14.80;;;11.23;;
55134;SDS011;41031;44.750;11.308;2023-08-17T03:03:01;13.27;;;11.97;;
55134;SDS011;41031;44.750;11.308;2023-08-17T03:05:28;12.17;;;11.03;;
55134;SDS011;41031;44.750;11.308;2023-08-17T03:07:55;14.83;;;12.00;;
55134;SDS011;41031;44.750;11.308;2023-08-17T03:10:22;14.23;;;11.90;;
55134;SDS011;41031;44.750;11.308;2023-08-17T03:12:51;13.73;;;12.40;;
55134;SDS011;41031;44.750;11.308;2023-08-17T03:15:18;14.27;;;12.97;;
55134;SDS011;41031;44.750;11.308;2023-08-17T03:17:45;14.50;;;12.73;;
55134;SDS011;41031;44.750;11.308;2023-08-17T03:20:13;16.17;;;12.33;;
55134;SDS011;41031;44.750;11.308;2023-08-17T03:22:40;15.73;;;11.60;;
55134;SDS011;41031;44.750;11.308;2023-08-17T03:25:07;13.83;;;12.37;;
55134;SDS011;41031;44.750;11.308;2023-08-17T03:27:36;13.00;;;11.57;;
55134;SDS011;41031;44.750;11.308;2023-08-17T03:30:04;17.07;;;13.40;;
55134;SDS011;41031;44.750;11.308;2023-08-17T03:32:31;17.40;;;13.10;;
55134;SDS011;41031;44.750;11.308;2023-08-17T03:34:58;15.57;;;13.70;;
55134;SDS011;41031;44.750;11.308;2023-08-17T03:37:25;14.40;;;13.10;;
55134;SDS011;41031;44.750;11.308;2023-08-17T03:39:53;13.70;;;12.37;;
55134;SDS011;41031;44.750;11.308;2023-08-17T03:42:20;15.70;;;12.37;;
55134;SDS011;41031;44.750;11.308;2023-08-17T03:44:47;14.77;;;13.37;;
55134;SDS011;41031;44.750;11.308;2023-08-17T03:47:14;15.10;;;13.57;;
55134;SDS011;41031;44.750;11.308;2023-08-17T03:49:42;14.53;;;13.17;;
55134;SDS011;41031;44.750;11.308;2023-08-17T03:52:09;15.50;;;13.90;;
55134;SDS011;41031;44.750;11.308;2023-08-17T03:54:36;17.27;;;12.93;;
55134;SDS011;41031;44.750;11.308;2023-08-17T03:57:03;15.43;;;13.83;;
55134;SDS011;41031;44.750;11.308;2023-08-17T03:59:30;17.03;;;13.83;;
55134;SDS011;41031;44.750;11.308;2023-08-17T04:01:57;14.43;;;12.93;;
55134;SDS011;41031;44.750;11.308;2023-08-17T04:04:25;14.20;;;12.63;;
55134;SDS011;41031;44.750;11.308;2023-08-17T04:06:52;15.07;;;13.60;;
55134;SDS011;41031;44.750;11.308;2023-08-17T04:09:19;14.13;;;12.90;;
55134;SDS011;41031;44.750;11.308;2023-08-17T04:11:46;16.97;;;13.73;;
55134;SDS011;41031;44.750;11.308;2023-08-17T04:14:13;15.63;;;13.63;;
55134;SDS011;41031;44.750;11.308;2023-08-17T04:16:40;16.57;;;13.57;;
55134;SDS011;41031;44.750;11.308;2023-08-17T04:19:08;16.00;;;13.33;;
55134;SDS011;41031;44.750;11.308;2023-08-17T04:21:35;13.07;;;11.77;;
55134;SDS011;41031;44.750;11.308;2023-08-17T04:24:02;13.40;;;12.20;;
55134;SDS011;41031;44.750;11.308;2023-08-17T04:26:30;17.33;;;12.73;;
55134;SDS011;41031;44.750;11.308;2023-08-17T04:28:56;14.40;;;13.00;;
55134;SDS011;41031;44.750;11.308;2023-08-17T04:31:23;14.47;;;13.07;;
55134;SDS011;41031;44.750;11.308;2023-08-17T04:33:57;15.57;;;12.73;;
55134;SDS011;41031;44.750;11.308;2023-08-17T04:36:25;14.70;;;13.50;;
55134;SDS011;41031;44.750;11.308;2023-08-17T04:38:53;14.63;;;13.23;;
55134;SDS011;41031;44.750;11.308;2023-08-17T04:41:20;14.77;;;12.83;;
55134;SDS011;41031;44.750;11.308;2023-08-17T04:43:49;13.70;;;12.40;;
55134;SDS011;41031;44.750;11.308;2023-08-17T04:46:16;15.20;;;13.07;;
55134;SDS011;41031;44.750;11.308;2023-08-17T04:48:43;15.80;;;14.40;;
55134;SDS011;41031;44.750;11.308;2023-08-17T04:51:11;16.73;;;13.90;;
55134;SDS011;41031;44.750;11.308;2023-08-17T04:53:42;16.83;;;15.27;;
55134;SDS011;41031;44.750;11.308;2023-08-17T04:56:09;17.43;;;15.43;;
55134;SDS011;41031;44.750;11.308;2023-08-17T04:58:37;17.37;;;13.67;;
55134;SDS011;41031;44.750;11.308;2023-08-17T05:01:05;15.70;;;14.23;;
55134;SDS011;41031;44.750;11.308;2023-08-17T05:03:32;15.60;;;14.20;;
55134;SDS011;41031;44.750;11.308;2023-08-17T05:06:02;15.20;;;13.07;;
55134;SDS011;41031;44.750;11.308;2023-08-17T05:08:31;17.07;;;15.30;;
55134;SDS011;41031;44.750;11.308;2023-08-17T05:10:58;17.37;;;15.63;;
55134;SDS011;41031;44.750;11.308;2023-08-17T05:13:25;15.93;;;14.43;;
55134;SDS011;41031;44.750;11.308;2023-08-17T05:15:55;16.80;;;15.13;;
55134;SDS011;41031;44.750;11.308;2023-08-17T05:18:23;19.27;;;17.00;;
55134;SDS011;41031;44.750;11.308;2023-08-17T05:20:50;18.40;;;16.53;;
55134;SDS011;41031;44.750;11.308;2023-08-17T05:23:17;19.13;;;17.33;;
55134;SDS011;41031;44.750;11.308;2023-08-17T05:25:47;20.63;;;16.93;;
55134;SDS011;41031;44.750;11.308;2023-08-17T05:28:15;18.40;;;16.80;;
55134;SDS011;41031;44.750;11.308;2023-08-17T05:30:42;19.07;;;17.07;;
55134;SDS011;41031;44.750;11.308;2023-08-17T05:33:09;18.37;;;16.50;;
55134;SDS011;41031;44.750;11.308;2023-08-17T05:35:37;20.70;;;17.40;;
55134;SDS011;41031;44.750;11.308;2023-08-17T05:38:04;18.30;;;16.57;;
55134;SDS011;41031;44.750;11.308;2023-08-17T05:40:32;20.30;;;17.70;;
55134;SDS011;41031;44.750;11.308;2023-08-17T05:42:59;18.07;;;16.13;;
55134;SDS011;41031;44.750;11.308;2023-08-17T05:45:26;22.37;;;18.03;;
55134;SDS011;41031;44.750;11.308;2023-08-17T05:47:53;19.23;;;17.40;;
55134;SDS011;41031;44.750;11.308;2023-08-17T05:50:21;19.67;;;17.80;;
55134;SDS011;41031;44.750;11.308;2023-08-17T05:52:48;22.50;;;18.17;;
55134;SDS011;41031;44.750;11.308;2023-08-17T05:55:15;21.80;;;18.10;;
55134;SDS011;41031;44.750;11.308;2023-08-17T05:57:42;19.07;;;17.17;;
55134;SDS011;41031;44.750;11.308;2023-08-17T06:00:09;20.17;;;18.17;;
55134;SDS011;41031;44.750;11.308;2023-08-17T06:02:40;23.23;;;19.20;;
55134;SDS011;41031;44.750;11.308;2023-08-17T06:05:07;26.10;;;18.87;;
55134;SDS011;41031;44.750;11.308;2023-08-17T06:07:35;20.90;;;18.80;;
55134;SDS011;41031;44.750;11.308;2023-08-17T06:10:03;29.50;;;19.20;;
55134;SDS011;41031;44.750;11.308;2023-08-17T06:12:32;20.20;;;18.10;;
55134;SDS011;41031;44.750;11.308;2023-08-17T06:15:01;24.17;;;18.33;;
55134;SDS011;41031;44.750;11.308;2023-08-17T06:17:29;27.03;;;19.47;;
55134;SDS011;41031;44.750;11.308;2023-08-17T06:19:56;20.80;;;18.67;;
55134;SDS011;41031;44.750;11.308;2023-08-17T06:22:23;20.70;;;18.67;;
55134;SDS011;41031;44.750;11.308;2023-08-17T06:24:50;20.37;;;18.30;;
55134;SDS011;41031;44.750;11.308;2023-08-17T06:27:17;24.80;;;19.57;;
55134;SDS011;41031;44.750;11.308;2023-08-17T06:29:44;20.20;;;18.23;;
55134;SDS011;41031;44.750;11.308;2023-08-17T06:32:11;20.87;;;18.97;;
55134;SDS011;41031;44.750;11.308;2023-08-17T06:34:38;18.17;;;16.03;;
55134;SDS011;41031;44.750;11.308;2023-08-17T06:37:05;18.73;;;16.93;;
55134;SDS011;41031;44.750;11.308;2023-08-17T06:39:32;19.40;;;17.47;;
55134;SDS011;41031;44.750;11.308;2023-08-17T06:42:00;18.10;;;16.43;;
55134;SDS011;41031;44.750;11.308;2023-08-17T06:44:27;20.07;;;16.43;;
55134;SDS011;41031;44.750;11.308;2023-08-17T06:46:55;19.57;;;17.47;;
55134;SDS011;41031;44.750;11.308;2023-08-17T06:49:23;19.53;;;17.53;;
55134;SDS011;41031;44.750;11.308;2023-08-17T06:51:50;20.07;;;17.77;;
55134;SDS011;41031;44.750;11.308;2023-08-17T06:54:17;20.33;;;18.47;;
55134;SDS011;41031;44.750;11.308;2023-08-17T06:56:44;23.13;;;18.67;;
55134;SDS011;41031;44.750;11.308;2023-08-17T06:59:12;19.67;;;17.90;;
55134;SDS011;41031;44.750;11.308;2023-08-17T07:01:38;18.80;;;17.00;;
55134;SDS011;41031;44.750;11.308;2023-08-17T07:04:05;18.63;;;17.10;;
55134;SDS011;41031;44.750;11.308;2023-08-17T07:06:33;22.03;;;19.90;;
55134;SDS011;41031;44.750;11.308;2023-08-17T07:09:01;21.70;;;19.63;;
55134;SDS011;41031;44.750;11.308;2023-08-17T07:11:30;22.30;;;20.30;;
55134;SDS011;41031;44.750;11.308;2023-08-17T07:13:57;21.07;;;18.83;;
55134;SDS011;41031;44.750;11.308;2023-08-17T07:16:24;21.37;;;19.20;;
55134;SDS011;41031;44.750;11.308;2023-08-17T07:18:51;20.80;;;18.93;;
55134;SDS011;41031;44.750;11.308;2023-08-17T07:21:18;21.27;;;19.30;;
55134;SDS011;41031;44.750;11.308;2023-08-17T07:23:45;23.63;;;20.63;;
55134;SDS011;41031;44.750;11.308;2023-08-17T07:26:13;22.37;;;19.60;;
55134;SDS011;41031;44.750;11.308;2023-08-17T07:28:40;21.87;;;19.47;;
55134;SDS011;41031;44.750;11.308;2023-08-17T07:31:07;19.03;;;17.23;;
55134;SDS011;41031;44.750;11.308;2023-08-17T07:33:34;22.87;;;20.43;;
55134;SDS011;41031;44.750;11.308;2023-08-17T07:36:01;21.60;;;19.63;;
55134;SDS011;41031;44.750;11.308;2023-08-17T07:38:28;22.73;;;20.63;;
55134;SDS011;41031;44.750;11.308;2023-08-17T07:40:55;20.93;;;19.03;;
55134;SDS011;41031;44.750;11.308;2023-08-17T07:43:22;23.67;;;19.63;;
55134;SDS011;41031;44.750;11.308;2023-08-17T07:45:54;21.37;;;19.37;;
55134;SDS011;41031;44.750;11.308;2023-08-17T07:48:24;22.77;;;20.43;;
55134;SDS011;41031;44.750;11.308;2023-08-17T07:50:52;20.93;;;18.80;;
55134;SDS011;41031;44.750;11.308;2023-08-17T07:53:19;21.47;;;18.53;;
55134;SDS011;41031;44.750;11.308;2023-08-17T07:55:46;23.27;;;21.07;;
55134;SDS011;41031;44.750;11.308;2023-08-17T07:58:15;20.77;;;18.00;;
55134;SDS011;41031;44.750;11.308;2023-08-17T08:00:42;19.67;;;17.77;;
55134;SDS011;41031;44.750;11.308;2023-08-17T08:03:09;20.07;;;18.30;;
55134;SDS011;41031;44.750;11.308;2023-08-17T08:05:36;18.90;;;17.00;;
55134;SDS011;41031;44.750;11.308;2023-08-17T08:08:04;17.07;;;15.53;;
55134;SDS011;41031;44.750;11.308;2023-08-17T08:10:31;14.43;;;12.97;;
55134;SDS011;41031;44.750;11.308;2023-08-17T08:12:58;22.17;;;18.53;;
55134;SDS011;41031;44.750;11.308;2023-08-17T08:15:25;27.83;;;18.87;;
55134;SDS011;41031;44.750;11.308;2023-08-17T08:17:52;18.57;;;16.77;;
55134;SDS011;41031;44.750;11.308;2023-08-17T08:20:20;19.50;;;15.90;;
55134;SDS011;41031;44.750;11.308;2023-08-17T08:22:47;20.20;;;15.83;;
55134;SDS011;41031;44.750;11.308;2023-08-17T08:25:15;15.03;;;13.63;;
55134;SDS011;41031;44.750;11.308;2023-08-17T08:27:42;18.37;;;13.93;;
55134;SDS011;41031;44.750;11.308;2023-08-17T08:30:09;16.43;;;13.77;;
55134;SDS011;41031;44.750;11.308;2023-08-17T08:32:36;14.40;;;12.97;;
55134;SDS011;41031;44.750;11.308;2023-08-17T08:35:03;13.07;;;11.87;;
55134;SDS011;41031;44.750;11.308;2023-08-17T08:37:31;15.00;;;13.63;;
55134;SDS011;41031;44.750;11.308;2023-08-17T08:39:59;17.23;;;15.40;;
55134;SDS011;41031;44.750;11.308;2023-08-17T08:42:26;14.27;;;12.60;;
55134;SDS011;41031;44.750;11.308;2023-08-17T08:44:53;13.20;;;11.87;;
55134;SDS011;41031;44.750;11.308;2023-08-17T08:47:20;14.20;;;11.93;;
55134;SDS011;41031;44.750;11.308;2023-08-17T08:49:58;16.03;;;13.33;;
55134;SDS011;41031;44.750;11.308;2023-08-17T08:52:36;15.60;;;13.87;;
55134;SDS011;41031;44.750;11.308;2023-08-17T08:55:10;13.63;;;12.33;;
55134;SDS011;41031;44.750;11.308;2023-08-17T08:57:41;17.07;;;12.70;;
55134;SDS011;41031;44.750;11.308;2023-08-17T09:00:11;10.83;;;8.57;;
55134;SDS011;41031;44.750;11.308;2023-08-17T09:02:38;9.43;;;8.47;;
55134;SDS011;41031;44.750;11.308;2023-08-17T09:05:07;9.00;;;7.83;;
55134;SDS011;41031;44.750;11.308;2023-08-17T09:07:37;10.77;;;9.73;;
55134;SDS011;41031;44.750;11.308;2023-08-17T09:10:05;14.70;;;11.93;;
55134;SDS011;41031;44.750;11.308;2023-08-17T09:12:32;12.00;;;10.90;;
55134;SDS011;41031;44.750;11.308;2023-08-17T09:15:06;11.70;;;10.53;;
55134;SDS011;41031;44.750;11.308;2023-08-17T09:17:34;11.10;;;10.13;;
55134;SDS011;41031;44.750;11.308;2023-08-17T09:20:01;11.50;;;10.40;;
55134;SDS011;41031;44.750;11.308;2023-08-17T09:22:42;11.60;;;10.47;;
55134;SDS011;41031;44.750;11.308;2023-08-17T09:25:10;12.43;;;10.20;;
55134;SDS011;41031;44.750;11.308;2023-08-17T09:27:37;14.77;;;10.93;;
55134;SDS011;41031;44.750;11.308;2023-08-17T09:30:06;12.83;;;9.97;;
55134;SDS011;41031;44.750;11.308;2023-08-17T09:32:35;9.23;;;8.33;;
55134;SDS011;41031;44.750;11.308;2023-08-17T09:35:02;9.97;;;9.07;;
55134;SDS011;41031;44.750;11.308;2023-08-17T09:37:32;9.33;;;8.20;;
55134;SDS011;41031;44.750;11.308;2023-08-17T09:40:00;11.77;;;8.80;;
55134;SDS011;41031;44.750;11.308;2023-08-17T09:42:27;10.83;;;8.77;;
55134;SDS011;41031;44.750;11.308;2023-08-17T09:44:54;10.30;;;7.77;;
55134;SDS011;41031;44.750;11.308;2023-08-17T09:47:22;9.37;;;8.47;;
55134;SDS011;41031;44.750;11.308;2023-08-17T09:49:50;11.50;;;8.10;;
55134;SDS011;41031;44.750;11.308;2023-08-17T09:52:19;9.00;;;7.00;;
55134;SDS011;41031;44.750;11.308;2023-08-17T09:54:48;9.80;;;7.00;;
55134;SDS011;41031;44.750;11.308;2023-08-17T09:57:15;8.40;;;6.60;;
55134;SDS011;41031;44.750;11.308;2023-08-17T09:59:48;7.27;;;6.57;;
55134;SDS011;41031;44.750;11.308;2023-08-17T10:02:22;7.93;;;7.07;;
55134;SDS011;41031;44.750;11.308;2023-08-17T10:04:53;7.03;;;6.53;;
55134;SDS011;41031;44.750;11.308;2023-08-17T10:07:24;10.90;;;7.23;;
55134;SDS011;41031;44.750;11.308;2023-08-17T10:10:01;10.17;;;8.80;;
55134;SDS011;41031;44.750;11.308;2023-08-17T10:12:34;12.50;;;7.47;;
55134;SDS011;41031;44.750;11.308;2023-08-17T10:15:08;13.37;;;8.30;;
55134;SDS011;41031;44.750;11.308;2023-08-17T10:17:39;8.47;;;7.43;;
55134;SDS011;41031;44.750;11.308;2023-08-17T10:20:14;8.45;;;6.90;;
55134;SDS011;41031;44.750;11.308;2023-08-17T10:22:44;9.23;;;6.57;;
55134;SDS011;41031;44.750;11.308;2023-08-17T10:25:18;6.67;;;6.17;;
55134;SDS011;41031;44.750;11.308;2023-08-17T10:27:48;7.00;;;6.28;;
55134;SDS011;41031;44.750;11.308;2023-08-17T10:30:18;8.80;;;5.97;;
55134;SDS011;41031;44.750;11.308;2023-08-17T10:32:45;6.50;;;5.90;;
55134;SDS011;41031;44.750;11.308;2023-08-17T10:35:13;7.13;;;6.53;;
55134;SDS011;41031;44.750;11.308;2023-08-17T10:37:41;7.15;;;6.45;;
55134;SDS011;41031;44.750;11.308;2023-08-17T10:40:08;7.18;;;5.85;;
55134;SDS011;41031;44.750;11.308;2023-08-17T10:42:46;9.85;;;6.60;;
55134;SDS011;41031;44.750;11.308;2023-08-17T10:48:24;8.13;;;5.93;;
55134;SDS011;41031;44.750;11.308;2023-08-17T10:50:58;6.95;;;5.97;;
55134;SDS011;41031;44.750;11.308;2023-08-17T10:53:27;9.25;;;6.20;;
55134;SDS011;41031;44.750;11.308;2023-08-17T10:56:01;7.50;;;6.07;;
55134;SDS011;41031;44.750;11.308;2023-08-17T10:58:32;6.78;;;5.93;;
55134;SDS011;41031;44.750;11.308;2023-08-17T11:01:00;10.23;;;6.00;;
55134;SDS011;41031;44.750;11.308;2023-08-17T11:03:27;8.20;;;6.55;;
55134;SDS011;41031;44.750;11.308;2023-08-17T11:05:56;7.00;;;6.30;;
55134;SDS011;41031;44.750;11.308;2023-08-17T11:08:33;6.73;;;5.50;;
55134;SDS011;41031;44.750;11.308;2023-08-17T11:11:12;6.55;;;5.68;;
55134;SDS011;41031;44.750;11.308;2023-08-17T11:13:41;6.40;;;5.63;;
55134;SDS011;41031;44.750;11.308;2023-08-17T11:16:10;7.05;;;6.25;;
55134;SDS011;41031;44.750;11.308;2023-08-17T11:18:43;9.88;;;5.93;;
55134;SDS011;41031;44.750;11.308;2023-08-17T11:21:10;6.65;;;5.60;;
55134;SDS011;41031;44.750;11.308;2023-08-17T11:23:45;6.30;;;5.45;;
55134;SDS011;41031;44.750;11.308;2023-08-17T11:26:15;6.80;;;6.20;;
55134;SDS011;41031;44.750;11.308;2023-08-17T11:28:44;6.70;;;5.53;;
55134;SDS011;41031;44.750;11.308;2023-08-17T11:31:12;5.85;;;5.35;;
55134;SDS011;41031;44.750;11.308;2023-08-17T11:33:42;6.07;;;5.57;;
55134;SDS011;41031;44.750;11.308;2023-08-17T11:36:09;6.32;;;5.68;;
55134;SDS011;41031;44.750;11.308;2023-08-17T11:38:37;7.85;;;5.65;;
55134;SDS011;41031;44.750;11.308;2023-08-17T11:41:09;6.07;;;5.68;;
55134;SDS011;41031;44.750;11.308;2023-08-17T11:43:44;6.15;;;5.30;;
55134;SDS011;41031;44.750;11.308;2023-08-17T11:46:12;6.07;;;5.55;;
55134;SDS011;41031;44.750;11.308;2023-08-17T11:48:40;6.45;;;5.78;;
55134;SDS011;41031;44.750;11.308;2023-08-17T11:51:07;9.02;;;5.53;;
55134;SDS011;41031;44.750;11.308;2023-08-17T11:53:35;6.07;;;5.47;;
55134;SDS011;41031;44.750;11.308;2023-08-17T11:56:03;6.15;;;5.63;;
55134;SDS011;41031;44.750;11.308;2023-08-17T11:58:36;6.60;;;6.10;;
55134;SDS011;41031;44.750;11.308;2023-08-17T12:01:08;7.05;;;5.88;;
55134;SDS011;41031;44.750;11.308;2023-08-17T12:03:37;5.88;;;5.38;;
55134;SDS011;41031;44.750;11.308;2023-08-17T12:06:06;7.00;;;6.30;;
55134;SDS011;41031;44.750;11.308;2023-08-17T12:08:33;6.63;;;6.00;;
55134;SDS011;41031;44.750;11.308;2023-08-17T12:11:02;8.45;;;6.55;;
55134;SDS011;41031;44.750;11.308;2023-08-17T12:13:30;6.47;;;5.80;;
55134;SDS011;41031;44.750;11.308;2023-08-17T12:15:59;6.47;;;5.90;;
55134;SDS011;41031;44.750;11.308;2023-08-17T12:18:26;7.50;;;6.15;;
55134;SDS011;41031;44.750;11.308;2023-08-17T12:20:53;7.95;;;7.15;;
55134;SDS011;41031;44.750;11.308;2023-08-17T12:23:21;6.78;;;6.03;;
55134;SDS011;41031;44.750;11.308;2023-08-17T12:25:54;7.95;;;6.45;;
55134;SDS011;41031;44.750;11.308;2023-08-17T12:28:22;7.32;;;6.30;;
55134;SDS011;41031;44.750;11.308;2023-08-17T12:31:00;8.13;;;6.95;;
55134;SDS011;41031;44.750;11.308;2023-08-17T12:33:29;6.25;;;5.65;;
55134;SDS011;41031;44.750;11.308;2023-08-17T12:35:56;6.68;;;6.13;;
55134;SDS011;41031;44.750;11.308;2023-08-17T12:38:24;7.68;;;6.82;;
55134;SDS011;41031;44.750;11.308;2023-08-17T12:40:52;8.00;;;6.43;;
55134;SDS011;41031;44.750;11.308;2023-08-17T12:43:19;6.78;;;6.18;;
55134;SDS011;41031;44.750;11.308;2023-08-17T12:45:47;10.60;;;7.57;;
55134;SDS011;41031;44.750;11.308;2023-08-17T12:48:14;7.28;;;6.43;;
55134;SDS011;41031;44.750;11.308;2023-08-17T12:50:41;10.60;;;6.15;;
55134;SDS011;41031;44.750;11.308;2023-08-17T12:53:10;7.47;;;6.63;;
55134;SDS011;41031;44.750;11.308;2023-08-17T12:55:37;13.80;;;6.95;;
55134;SDS011;41031;44.750;11.308;2023-08-17T12:58:07;7.63;;;6.93;;
55134;SDS011;41031;44.750;11.308;2023-08-17T13:00:36;7.18;;;6.40;;
55134;SDS011;41031;44.750;11.308;2023-08-17T13:03:03;9.10;;;6.28;;
55134;SDS011;41031;44.750;11.308;2023-08-17T13:05:30;9.93;;;7.03;;
55134;SDS011;41031;44.750;11.308;2023-08-17T13:07:58;7.53;;;6.77;;
55134;SDS011;41031;44.750;11.308;2023-08-17T13:10:25;7.28;;;6.57;;
55134;SDS011;41031;44.750;11.308;2023-08-17T13:12:52;6.22;;;5.72;;
55134;SDS011;41031;44.750;11.308;2023-08-17T13:15:25;7.43;;;6.05;;
55134;SDS011;41031;44.750;11.308;2023-08-17T13:17:53;8.27;;;6.63;;
55134;SDS011;41031;44.750;11.308;2023-08-17T13:20:20;6.60;;;6.10;;
55134;SDS011;41031;44.750;11.308;2023-08-17T13:22:47;8.25;;;6.10;;
55134;SDS011;41031;44.750;11.308;2023-08-17T13:25:14;6.88;;;6.18;;
55134;SDS011;41031;44.750;11.308;2023-08-17T13:27:42;6.40;;;5.90;;
55134;SDS011;41031;44.750;11.308;2023-08-17T13:30:09;10.80;;;6.32;;
55134;SDS011;41031;44.750;11.308;2023-08-17T13:32:36;7.30;;;6.32;;
55134;SDS011;41031;44.750;11.308;2023-08-17T13:35:03;7.00;;;6.35;;
55134;SDS011;41031;44.750;11.308;2023-08-17T13:37:31;6.93;;;6.13;;
55134;SDS011;41031;44.750;11.308;2023-08-17T13:39:58;6.95;;;6.45;;
55134;SDS011;41031;44.750;11.308;2023-08-17T13:42:26;7.13;;;6.50;;
55134;SDS011;41031;44.750;11.308;2023-08-17T13:44:54;7.10;;;6.22;;
55134;SDS011;41031;44.750;11.308;2023-08-17T13:47:21;9.55;;;6.18;;
55134;SDS011;41031;44.750;11.308;2023-08-17T13:49:48;7.35;;;6.40;;
55134;SDS011;41031;44.750;11.308;2023-08-17T13:52:15;9.60;;;6.77;;
55134;SDS011;41031;44.750;11.308;2023-08-17T13:54:42;8.80;;;6.80;;
55134;SDS011;41031;44.750;11.308;2023-08-17T13:57:09;7.47;;;6.78;;
55134;SDS011;41031;44.750;11.308;2023-08-17T13:59:36;8.18;;;6.43;;
55134;SDS011;41031;44.750;11.308;2023-08-17T14:02:03;8.03;;;6.30;;
55134;SDS011;41031;44.750;11.308;2023-08-17T14:04:31;8.13;;;7.17;;
55134;SDS011;41031;44.750;11.308;2023-08-17T14:06:58;8.73;;;6.70;;
55134;SDS011;41031;44.750;11.308;2023-08-17T14:09:25;7.10;;;6.57;;
55134;SDS011;41031;44.750;11.308;2023-08-17T14:11:52;7.03;;;6.53;;
55134;SDS011;41031;44.750;11.308;2023-08-17T14:14:19;7.83;;;6.70;;
55134;SDS011;41031;44.750;11.308;2023-08-17T14:16:46;6.93;;;6.17;;
55134;SDS011;41031;44.750;11.308;2023-08-17T14:19:13;7.50;;;6.80;;
55134;SDS011;41031;44.750;11.308;2023-08-17T14:21:41;7.53;;;6.77;;
55134;SDS011;41031;44.750;11.308;2023-08-17T14:24:08;6.70;;;6.20;;
55134;SDS011;41031;44.750;11.308;2023-08-17T14:26:35;9.67;;;7.00;;
55134;SDS011;41031;44.750;11.308;2023-08-17T14:29:02;8.37;;;6.87;;
55134;SDS011;41031;44.750;11.308;2023-08-17T14:31:29;7.10;;;6.53;;